createdAt,value
2018-03-15T00:01:34.137Z,7.20
2018-03-15T00:04:01.804Z,7.40
2018-03-15T00:06:29.516Z,6.90
2018-03-15T00:08:57.325Z,7.70
2018-03-15T00:11:25.084Z,7.50
2018-03-15T00:13:52.782Z,6.90
2018-03-15T00:16:20.621Z,7.20
2018-03-15T00:18:48.172Z,7.90
2018-03-15T00:21:15.757Z,7.90
2018-03-15T00:23:43.289Z,7.10
2018-03-15T00:26:10.853Z,6.70
2018-03-15T00:28:38.512Z,7.00
2018-03-15T00:31:06.069Z,7.50
2018-03-15T00:33:33.710Z,7.30
2018-03-15T00:36:01.255Z,7.30
2018-03-15T00:38:28.776Z,7.40
2018-03-15T00:40:57.347Z,6.90
2018-03-15T00:43:24.887Z,6.80
2018-03-15T00:45:52.551Z,7.00
2018-03-15T00:48:20.090Z,7.40
2018-03-15T00:50:47.645Z,8.20
2018-03-15T00:53:15.180Z,7.70
2018-03-15T00:55:42.742Z,7.70
2018-03-15T00:58:11.032Z,7.00
2018-03-15T01:00:38.791Z,7.00
2018-03-15T01:03:06.598Z,7.10
2018-03-15T01:05:34.151Z,6.90
2018-03-15T01:08:01.762Z,6.40
2018-03-15T01:10:29.597Z,6.60
2018-03-15T01:12:57.344Z,6.50
2018-03-15T01:15:24.886Z,6.30
2018-03-15T01:17:52.438Z,6.20
2018-03-15T01:20:20.037Z,6.00
2018-03-15T01:22:47.579Z,5.90
2018-03-15T01:25:15.181Z,5.90
2018-03-15T01:27:42.883Z,6.30
2018-03-15T01:30:10.771Z,7.40
2018-03-15T01:32:38.322Z,6.40
2018-03-15T01:35:05.874Z,7.20
2018-03-15T01:37:33.414Z,6.50
2018-03-15T01:40:00.973Z,6.50
2018-03-15T01:42:28.623Z,6.40
2018-03-15T01:44:56.365Z,6.30
2018-03-15T01:47:24.252Z,6.20
2018-03-15T01:49:51.880Z,7.00
2018-03-15T01:52:19.426Z,6.60
2018-03-15T01:54:47.177Z,6.90
2018-03-15T01:57:14.722Z,7.20
2018-03-15T01:59:42.350Z,6.50
2018-03-15T02:02:10.518Z,7.10
2018-03-15T02:04:38.841Z,6.60
2018-03-15T02:07:06.378Z,6.60
2018-03-15T02:09:34.078Z,6.30
2018-03-15T02:12:01.759Z,7.10
2018-03-15T02:14:29.292Z,7.20
2018-03-15T02:16:57.043Z,7.20
2018-03-15T02:19:25.155Z,7.60
2018-03-15T02:21:52.896Z,7.60
2018-03-15T02:24:20.425Z,6.70
2018-03-15T02:26:47.969Z,6.30
2018-03-15T02:29:15.562Z,6.40
2018-03-15T02:31:43.285Z,6.40
2018-03-15T02:34:10.822Z,7.00
2018-03-15T02:36:38.382Z,7.30
2018-03-15T02:39:06.922Z,7.20
2018-03-15T02:41:34.471Z,7.10
2018-03-15T02:44:02.068Z,7.40
2018-03-15T02:46:29.623Z,7.10
2018-03-15T02:48:57.370Z,6.60
2018-03-15T02:51:24.932Z,6.20
2018-03-15T02:53:52.587Z,6.60
2018-03-15T02:56:20.156Z,6.70
2018-03-15T02:58:47.886Z,6.20
2018-03-15T03:01:15.437Z,6.20
2018-03-15T03:03:43.047Z,6.60
2018-03-15T03:06:10.894Z,6.30
2018-03-15T03:08:38.586Z,6.00
2018-03-15T03:11:06.437Z,5.90
2018-03-15T03:13:34.191Z,5.80
2018-03-15T03:16:01.737Z,5.70
2018-03-15T03:18:29.498Z,5.90
2018-03-15T03:20:57.035Z,5.90
2018-03-15T03:23:24.632Z,5.70
2018-03-15T03:25:52.165Z,6.30
2018-03-15T03:28:19.855Z,6.10
2018-03-15T03:30:47.399Z,5.90
2018-03-15T03:33:15.073Z,6.40
2018-03-15T03:35:42.628Z,6.10
2018-03-15T03:38:10.380Z,6.10
2018-03-15T03:40:37.927Z,5.90
2018-03-15T03:43:05.469Z,5.80
2018-03-15T03:45:33.006Z,6.60
2018-03-15T03:48:00.725Z,6.50
2018-03-15T03:50:28.290Z,6.90
2018-03-15T03:52:55.814Z,6.40
2018-03-15T03:55:23.410Z,6.10
2018-03-15T03:57:51.177Z,5.60
2018-03-15T04:00:18.942Z,5.50
2018-03-15T04:02:46.636Z,5.80
2018-03-15T04:05:14.201Z,5.80
2018-03-15T04:07:42.503Z,5.80
2018-03-15T04:10:10.041Z,5.70
2018-03-15T04:12:38.353Z,5.60
2018-03-15T04:15:05.895Z,5.50
2018-03-15T04:17:33.586Z,5.80
2018-03-15T04:20:01.136Z,5.80
2018-03-15T04:22:28.814Z,5.90
2018-03-15T04:24:56.577Z,5.90
2018-03-15T04:27:24.342Z,5.80
2018-03-15T04:29:52.120Z,6.10
2018-03-15T04:32:19.683Z,5.90
2018-03-15T04:34:47.270Z,5.80
2018-03-15T04:37:15.009Z,6.00
2018-03-15T04:39:42.548Z,5.80
2018-03-15T04:42:10.109Z,6.10
2018-03-15T04:44:37.780Z,5.90
2018-03-15T04:47:05.327Z,5.90
2018-03-15T04:49:32.985Z,5.90
2018-03-15T04:52:00.725Z,5.80
2018-03-15T04:54:28.269Z,5.70
2018-03-15T04:56:55.913Z,5.90
2018-03-15T04:59:23.656Z,5.80
2018-03-15T05:01:51.430Z,6.30
2018-03-15T05:04:19.267Z,6.10
2018-03-15T05:06:47.005Z,5.70
2018-03-15T05:09:14.716Z,5.50
2018-03-15T05:11:42.285Z,5.90
2018-03-15T05:14:09.822Z,6.00
2018-03-15T05:16:37.469Z,5.80
2018-03-15T05:19:05.191Z,6.30
2018-03-15T05:21:32.738Z,5.90
2018-03-15T05:24:01.074Z,6.10
2018-03-15T05:26:28.634Z,6.10
2018-03-15T05:28:56.281Z,6.30
2018-03-15T05:31:23.830Z,6.20
2018-03-15T05:33:51.512Z,5.80
2018-03-15T05:36:19.195Z,5.90
2018-03-15T05:38:46.864Z,5.70
2018-03-15T05:41:14.456Z,5.60
2018-03-15T05:43:42.007Z,5.50
2018-03-15T05:46:10.528Z,5.50
2018-03-15T05:48:38.096Z,5.50
2018-03-15T05:51:05.652Z,5.60
2018-03-15T05:53:33.183Z,5.70
2018-03-15T05:56:00.743Z,5.90
2018-03-15T05:58:28.334Z,6.20
2018-03-15T06:00:55.906Z,6.40
2018-03-15T06:03:23.453Z,7.80
2018-03-15T06:05:50.997Z,6.60
2018-03-15T06:08:18.666Z,6.20
2018-03-15T06:10:46.234Z,6.30
2018-03-15T06:13:13.772Z,5.90
2018-03-15T06:15:41.329Z,6.40
2018-03-15T06:18:09.097Z,6.20
2018-03-15T06:20:36.649Z,6.10
2018-03-15T06:23:04.198Z,6.00
2018-03-15T06:25:31.789Z,5.90
2018-03-15T06:27:59.322Z,5.80
2018-03-15T06:30:27.008Z,5.70
2018-03-15T06:32:54.773Z,5.70
2018-03-15T06:35:22.627Z,5.70
2018-03-15T06:37:50.164Z,5.90
2018-03-15T06:40:17.760Z,6.00
2018-03-15T06:42:45.295Z,5.90
2018-03-15T06:45:12.910Z,5.90
2018-03-15T06:47:40.655Z,6.00
2018-03-15T06:50:08.183Z,5.80
2018-03-15T06:52:35.718Z,5.80
2018-03-15T06:55:03.267Z,6.00
2018-03-15T06:57:30.806Z,6.00
2018-03-15T06:59:58.347Z,6.10
2018-03-15T07:02:26.068Z,6.00
2018-03-15T07:04:53.611Z,7.70
2018-03-15T07:07:21.344Z,7.10
2018-03-15T07:09:48.902Z,6.70
2018-03-15T07:12:17.475Z,6.50
2018-03-15T07:14:45.216Z,6.50
2018-03-15T07:17:12.778Z,6.40
2018-03-15T07:19:40.402Z,6.50
2018-03-15T07:22:07.941Z,6.40
2018-03-15T07:24:36.581Z,6.60
2018-03-15T07:27:04.122Z,6.60
2018-03-15T07:29:31.673Z,6.60
2018-03-15T07:31:59.232Z,6.70
2018-03-15T07:34:26.894Z,6.60
2018-03-15T07:36:54.441Z,6.60
2018-03-15T07:39:22.034Z,6.70
2018-03-15T07:41:49.544Z,6.70
2018-03-15T07:44:17.106Z,6.80
2018-03-15T07:46:44.665Z,6.90
2018-03-15T07:49:13.004Z,6.90
2018-03-15T07:51:40.694Z,6.90
2018-03-15T07:54:08.580Z,6.90
2018-03-15T07:56:36.916Z,7.20
2018-03-15T07:59:04.452Z,7.10
2018-03-15T08:01:32.089Z,7.20
2018-03-15T08:03:59.799Z,7.10
2018-03-15T08:06:27.341Z,7.10
2018-03-15T08:08:54.895Z,7.30
2018-03-15T08:11:22.556Z,7.20
2018-03-15T08:13:50.093Z,7.30
2018-03-15T08:16:17.750Z,7.40
2018-03-15T08:18:45.474Z,7.40
2018-03-15T08:21:13.017Z,7.50
2018-03-15T08:23:40.596Z,7.60
2018-03-15T08:26:08.145Z,7.60
2018-03-15T08:28:35.983Z,7.70
2018-03-15T08:31:03.533Z,7.80
2018-03-15T08:33:31.153Z,8.00
2018-03-15T08:35:58.678Z,8.00
2018-03-15T08:38:26.430Z,7.90
2018-03-15T08:40:53.962Z,8.00
2018-03-15T08:43:21.650Z,8.20
2018-03-15T08:45:49.403Z,8.20
2018-03-15T08:48:17.172Z,8.40
2018-03-15T08:50:44.972Z,8.40
2018-03-15T08:53:12.685Z,8.40
2018-03-15T08:55:40.381Z,8.90
2018-03-15T08:58:07.917Z,8.80
2018-03-15T09:00:35.624Z,8.90
2018-03-15T09:03:03.165Z,8.90
2018-03-15T09:05:30.831Z,9.10
2018-03-15T09:07:58.626Z,9.50
2018-03-15T09:10:26.162Z,9.40
2018-03-15T09:12:53.712Z,9.50
2018-03-15T09:15:21.300Z,9.60
2018-03-15T09:17:48.834Z,9.50
2018-03-15T09:20:16.463Z,9.50
2018-03-15T09:22:44.021Z,10.00
2018-03-15T09:25:11.746Z,9.90
2018-03-15T09:27:39.280Z,10.00
2018-03-15T09:30:06.833Z,9.40
2018-03-15T09:32:34.470Z,9.40
2018-03-15T09:35:02.231Z,9.20
2018-03-15T09:37:29.954Z,9.10
2018-03-15T09:39:57.758Z,9.30
2018-03-15T09:42:25.307Z,9.20
2018-03-15T09:44:52.972Z,9.20
2018-03-15T09:47:20.548Z,9.50
2018-03-15T09:49:48.517Z,9.50
2018-03-15T09:52:16.086Z,9.40
2018-03-15T09:54:43.644Z,9.70
2018-03-15T09:57:11.217Z,10.10
2018-03-15T09:59:39.541Z,10.20
2018-03-15T10:02:07.318Z,10.10
2018-03-15T10:04:34.894Z,10.50
2018-03-15T10:07:02.446Z,10.30
2018-03-15T10:09:29.999Z,10.60
2018-03-15T10:11:57.739Z,10.30
2018-03-15T10:14:25.306Z,10.00
2018-03-15T10:16:53.074Z,9.90
2018-03-15T10:19:20.750Z,10.30
2018-03-15T10:21:48.548Z,10.00
2018-03-15T10:24:16.065Z,10.30
2018-03-15T10:26:43.733Z,10.20
2018-03-15T10:29:11.506Z,10.00
2018-03-15T10:31:39.076Z,9.90
2018-03-15T10:34:06.719Z,10.50
2018-03-15T10:36:34.286Z,10.70
2018-03-15T10:39:01.895Z,10.30
2018-03-15T10:41:29.472Z,10.10
2018-03-15T10:43:57.068Z,10.00
2018-03-15T10:46:24.841Z,10.20
2018-03-15T10:48:52.714Z,10.40
2018-03-15T10:51:21.034Z,9.70
2018-03-15T10:53:48.848Z,9.60
2018-03-15T10:56:16.561Z,9.80
2018-03-15T10:58:44.348Z,9.80
2018-03-15T11:01:17.792Z,10.00
2018-03-15T11:03:50.190Z,10.00
2018-03-15T11:06:23.367Z,10.30
2018-03-15T11:08:56.585Z,10.40
2018-03-15T11:11:24.152Z,10.80
2018-03-15T11:13:51.806Z,10.70
2018-03-15T11:16:19.593Z,11.10
2018-03-15T11:18:47.360Z,11.00
2018-03-15T11:21:14.934Z,11.10
2018-03-15T11:23:42.514Z,11.40
2018-03-15T11:26:10.365Z,11.30
2018-03-15T11:28:38.725Z,11.00
2018-03-15T11:31:06.302Z,10.90
2018-03-15T11:33:34.638Z,10.70
2018-03-15T11:36:02.219Z,10.70
2018-03-15T11:38:29.770Z,11.00
2018-03-15T11:40:57.553Z,11.00
2018-03-15T11:43:25.107Z,11.40
2018-03-15T11:45:53.642Z,11.20
2018-03-15T11:48:21.227Z,11.20
2018-03-15T11:50:48.787Z,11.30
2018-03-15T11:53:16.351Z,10.70
2018-03-15T11:55:43.932Z,10.40
2018-03-15T11:58:11.542Z,9.90
2018-03-15T12:00:39.138Z,9.40
2018-03-15T12:03:06.910Z,9.20
2018-03-15T12:05:34.582Z,9.10
2018-03-15T12:08:02.964Z,9.20
2018-03-15T12:10:30.546Z,9.10
2018-03-15T12:12:58.082Z,9.10
2018-03-15T12:15:25.630Z,9.00
2018-03-15T12:17:53.204Z,9.00
2018-03-15T12:20:20.754Z,8.90
2018-03-15T12:22:48.316Z,8.90
2018-03-15T12:25:15.867Z,9.00
2018-03-15T12:27:43.405Z,8.90
2018-03-15T12:30:11.069Z,8.80
2018-03-15T12:32:38.678Z,8.80
2018-03-15T12:35:06.219Z,8.90
2018-03-15T12:37:33.875Z,9.00
2018-03-15T12:40:01.414Z,9.00
2018-03-15T12:42:28.950Z,9.20
2018-03-15T12:44:56.644Z,9.20
2018-03-15T12:47:24.225Z,9.30
2018-03-15T12:49:51.809Z,9.30
2018-03-15T12:52:19.710Z,9.40
2018-03-15T12:54:47.272Z,9.30
2018-03-15T12:57:14.856Z,9.60
2018-03-15T12:59:42.398Z,9.50
2018-03-15T13:02:10.028Z,9.30
2018-03-15T13:04:37.585Z,9.10
2018-03-15T13:07:05.298Z,9.20
2018-03-15T13:09:33.049Z,9.10
2018-03-15T13:12:00.877Z,9.10
2018-03-15T13:14:29.163Z,9.00
2018-03-15T13:16:56.949Z,9.00
2018-03-15T13:19:24.566Z,9.00
2018-03-15T13:21:52.192Z,8.90
2018-03-15T13:24:19.947Z,8.90
2018-03-15T13:26:47.648Z,8.90
2018-03-15T13:29:15.187Z,8.80
2018-03-15T13:31:42.756Z,8.90
2018-03-15T13:34:10.307Z,8.80
2018-03-15T13:36:38.065Z,8.80
2018-03-15T13:39:05.614Z,9.00
2018-03-15T13:41:33.165Z,9.10
2018-03-15T13:44:00.825Z,9.20
2018-03-15T13:46:28.370Z,9.00
2018-03-15T13:48:55.890Z,8.90
2018-03-15T13:51:23.424Z,8.80
2018-03-15T13:53:51.265Z,8.70
2018-03-15T13:56:18.800Z,9.00
2018-03-15T13:58:46.341Z,9.00
2018-03-15T14:01:13.893Z,8.80
2018-03-15T14:03:41.464Z,8.70
2018-03-15T14:06:09.755Z,8.50
2018-03-15T14:08:37.305Z,8.50
2018-03-15T14:11:04.994Z,8.50
2018-03-15T14:13:32.717Z,8.70
2018-03-15T14:16:00.537Z,8.50
2018-03-15T14:18:28.090Z,8.40
2018-03-15T14:20:55.830Z,8.40
2018-03-15T14:23:23.463Z,8.40
2018-03-15T14:25:51.006Z,8.40
2018-03-15T14:28:19.340Z,8.40
2018-03-15T14:30:46.907Z,8.30
2018-03-15T14:33:14.498Z,8.30
2018-03-15T14:35:42.344Z,8.30
2018-03-15T14:38:09.895Z,8.40
2018-03-15T14:40:37.496Z,8.40
2018-03-15T14:43:05.051Z,8.50
2018-03-15T14:45:33.381Z,8.50
2018-03-15T14:48:00.926Z,8.40
2018-03-15T14:50:28.690Z,8.40
2018-03-15T14:52:56.362Z,8.30
2018-03-15T14:55:23.915Z,8.30
2018-03-15T14:57:51.524Z,9.10
2018-03-15T15:00:19.090Z,8.50
2018-03-15T15:02:47.393Z,8.20
2018-03-15T15:05:14.930Z,8.10
2018-03-15T15:07:43.254Z,8.20
2018-03-15T15:10:10.821Z,8.10
2018-03-15T15:12:38.477Z,8.20
2018-03-15T15:15:06.240Z,8.20
2018-03-15T15:17:33.966Z,8.20
2018-03-15T15:20:01.511Z,8.10
2018-03-15T15:22:29.827Z,8.10
2018-03-15T15:24:57.362Z,8.00
2018-03-15T15:27:24.937Z,8.20
2018-03-15T15:29:52.498Z,8.10
2018-03-15T15:32:20.207Z,8.00
2018-03-15T15:34:47.744Z,7.90
2018-03-15T15:37:15.296Z,8.00
2018-03-15T15:39:42.967Z,8.10
2018-03-15T15:42:10.519Z,8.10
2018-03-15T15:44:38.080Z,8.00
2018-03-15T15:47:05.660Z,8.00
2018-03-15T15:49:33.214Z,8.00
2018-03-15T15:52:00.773Z,8.00
2018-03-15T15:54:28.320Z,8.30
2018-03-15T15:56:55.856Z,8.30
2018-03-15T15:59:23.554Z,8.20
2018-03-15T16:01:51.107Z,8.10
2018-03-15T16:04:18.752Z,8.10
2018-03-15T16:06:46.301Z,8.10
2018-03-15T16:09:13.970Z,7.90
2018-03-15T16:11:41.530Z,7.80
2018-03-15T16:14:09.175Z,7.70
2018-03-15T16:16:36.897Z,8.50
2018-03-15T16:19:04.733Z,8.40
2018-03-15T16:21:32.328Z,8.20
2018-03-15T16:23:59.850Z,8.30
2018-03-15T16:26:27.387Z,8.10
2018-03-15T16:28:55.166Z,8.10
2018-03-15T16:31:22.919Z,8.70
2018-03-15T16:33:50.696Z,8.70
2018-03-15T16:36:18.261Z,8.20
2018-03-15T16:38:45.847Z,8.40
2018-03-15T16:41:13.385Z,7.90
2018-03-15T16:43:40.963Z,7.70
2018-03-15T16:46:08.523Z,7.80
2018-03-15T16:48:36.079Z,8.30
2018-03-15T16:51:03.629Z,8.10
2018-03-15T16:53:31.198Z,9.20
2018-03-15T16:55:58.743Z,8.40
2018-03-15T16:58:26.302Z,8.70
2018-03-15T17:00:53.902Z,8.50
2018-03-15T17:03:21.449Z,8.00
2018-03-15T17:05:49.768Z,7.90
2018-03-15T17:08:17.562Z,7.80
2018-03-15T17:10:45.103Z,8.60
2018-03-15T17:13:12.764Z,8.50
2018-03-15T17:15:40.316Z,8.30
2018-03-15T17:18:07.854Z,7.50
2018-03-15T17:20:35.442Z,7.40
2018-03-15T17:23:02.982Z,7.40
2018-03-15T17:25:30.534Z,7.30
2018-03-15T17:27:58.086Z,7.40
2018-03-15T17:30:25.825Z,7.40
2018-03-15T17:32:53.382Z,7.50
2018-03-15T17:35:21.705Z,7.30
2018-03-15T17:37:49.334Z,7.20
2018-03-15T17:40:16.874Z,7.30
2018-03-15T17:42:44.764Z,7.30
2018-03-15T17:45:13.089Z,7.30
2018-03-15T17:47:40.626Z,7.20
2018-03-15T17:50:08.188Z,7.30
2018-03-15T17:52:35.754Z,7.30
2018-03-15T17:55:03.526Z,7.90
2018-03-15T17:57:31.072Z,8.10
2018-03-15T17:59:58.648Z,7.60
2018-03-15T18:02:26.505Z,7.50
2018-03-15T18:04:54.059Z,7.50
2018-03-15T18:07:21.708Z,7.50
2018-03-15T18:09:49.260Z,7.90
2018-03-15T18:12:16.971Z,7.80
2018-03-15T18:14:44.505Z,7.60
2018-03-15T18:17:12.885Z,7.50
2018-03-15T18:19:41.603Z,7.30
2018-03-15T18:22:09.916Z,7.30
2018-03-15T18:24:37.622Z,7.30
2018-03-15T18:27:05.166Z,7.20
2018-03-15T18:29:32.699Z,7.10
2018-03-15T18:32:00.253Z,6.90
2018-03-15T18:34:28.064Z,8.10
2018-03-15T18:36:55.636Z,7.40
2018-03-15T18:39:23.170Z,7.10
2018-03-15T18:41:50.807Z,7.20
2018-03-15T18:44:18.355Z,7.20
2018-03-15T18:46:45.899Z,7.10
2018-03-15T18:49:13.460Z,7.30
2018-03-15T18:51:41.773Z,7.30
2018-03-15T18:54:09.547Z,7.30
2018-03-15T18:56:37.317Z,7.40
2018-03-15T18:59:05.133Z,7.40
2018-03-15T19:01:32.841Z,7.30
2018-03-15T19:04:00.388Z,7.30
2018-03-15T19:06:27.941Z,7.20
2018-03-15T19:08:55.493Z,7.10
2018-03-15T19:11:23.260Z,7.30
2018-03-15T19:13:50.803Z,7.10
2018-03-15T19:16:18.392Z,6.90
2018-03-15T19:18:46.042Z,7.00
2018-03-15T19:21:13.637Z,7.00
2018-03-15T19:23:41.193Z,7.10
2018-03-15T19:26:08.921Z,7.30
2018-03-15T19:28:36.461Z,7.20
2018-03-15T19:31:04.041Z,7.10
2018-03-15T19:33:31.596Z,7.10
2018-03-15T19:35:59.139Z,7.10
2018-03-15T19:38:26.669Z,7.20
2018-03-15T19:40:54.238Z,7.00
2018-03-15T19:43:21.774Z,7.50
2018-03-15T19:45:49.336Z,7.70
2018-03-15T19:48:16.905Z,7.80
2018-03-15T19:50:44.466Z,7.20
2018-03-15T19:53:12.006Z,7.10
2018-03-15T19:55:39.592Z,7.10
2018-03-15T19:58:07.930Z,7.10
2018-03-15T20:00:35.492Z,7.10
2018-03-15T20:03:03.056Z,7.10
2018-03-15T20:05:30.673Z,7.20
2018-03-15T20:07:58.214Z,7.10
2018-03-15T20:10:26.534Z,6.90
2018-03-15T20:12:54.130Z,6.90
2018-03-15T20:15:21.698Z,6.90
2018-03-15T20:17:49.532Z,7.00
2018-03-15T20:20:17.082Z,6.90
2018-03-15T20:22:50.220Z,7.00
2018-03-15T20:25:17.868Z,7.00
2018-03-15T20:27:51.062Z,7.00
2018-03-15T20:30:18.749Z,7.10
2018-03-15T20:32:51.870Z,6.90
2018-03-15T20:35:19.534Z,6.80
2018-03-15T20:37:47.310Z,6.80
2018-03-15T20:40:21.005Z,8.70
2018-03-15T20:42:48.547Z,9.90
2018-03-15T20:45:21.706Z,10.50
2018-03-15T20:47:55.630Z,7.50
2018-03-15T20:50:23.253Z,7.40
2018-03-15T20:52:50.804Z,7.00
2018-03-15T20:55:18.364Z,7.00
2018-03-15T20:57:45.946Z,6.80
2018-03-15T21:00:13.493Z,6.70
2018-03-15T21:02:41.154Z,6.90
2018-03-15T21:05:08.715Z,6.80
2018-03-15T21:07:36.265Z,6.80
2018-03-15T21:10:03.803Z,6.70
2018-03-15T21:12:31.368Z,6.90
2018-03-15T21:14:59.127Z,6.70
2018-03-15T21:17:26.893Z,6.70
2018-03-15T21:19:54.668Z,6.60
2018-03-15T21:22:22.216Z,6.70
2018-03-15T21:24:49.756Z,6.70
2018-03-15T21:27:17.333Z,6.70
2018-03-15T21:29:44.874Z,6.60
2018-03-15T21:32:12.422Z,6.60
2018-03-15T21:34:39.986Z,6.70
2018-03-15T21:37:07.662Z,6.70
2018-03-15T21:39:35.194Z,6.70
2018-03-15T21:42:02.983Z,6.80
2018-03-15T21:44:30.525Z,6.70
2018-03-15T21:46:58.074Z,6.70
2018-03-15T21:49:25.635Z,6.70
2018-03-15T21:51:53.193Z,6.70
2018-03-15T21:54:20.747Z,6.80
2018-03-15T21:56:48.303Z,6.80
2018-03-15T21:59:15.847Z,6.90
2018-03-15T22:01:44.161Z,6.80
2018-03-15T22:04:11.712Z,6.80
2018-03-15T22:06:40.094Z,6.90
2018-03-15T22:09:07.642Z,6.90
2018-03-15T22:11:35.221Z,7.00
2018-03-15T22:14:02.753Z,6.80
2018-03-15T22:16:30.464Z,6.90
2018-03-15T22:18:58.011Z,6.80
2018-03-15T22:21:25.636Z,6.80
2018-03-15T22:23:53.361Z,6.60
2018-03-15T22:26:21.358Z,6.70
2018-03-15T22:28:48.905Z,6.50
2018-03-15T22:31:17.079Z,6.40
2018-03-15T22:33:45.427Z,6.30
2018-03-15T22:36:13.107Z,6.20
2018-03-15T22:38:40.897Z,6.40
2018-03-15T22:41:08.466Z,6.10
2018-03-15T22:43:36.019Z,6.10
2018-03-15T22:46:03.626Z,6.00
2018-03-15T22:48:31.184Z,6.00
2018-03-15T22:50:58.860Z,6.10
2018-03-15T22:53:26.622Z,6.10
2018-03-15T22:55:54.366Z,6.20
2018-03-15T22:58:21.917Z,6.00
2018-03-15T23:00:49.466Z,6.00
2018-03-15T23:03:17.049Z,5.90
2018-03-15T23:05:44.583Z,5.90
2018-03-15T23:08:12.193Z,6.00
2018-03-15T23:10:39.954Z,5.90
2018-03-15T23:13:07.726Z,5.80
2018-03-15T23:15:35.299Z,5.80
2018-03-15T23:18:03.629Z,5.80
2018-03-15T23:20:31.322Z,5.70
2018-03-15T23:22:58.873Z,5.80
2018-03-15T23:25:26.436Z,5.90
2018-03-15T23:27:54.733Z,5.90
2018-03-15T23:30:23.057Z,6.00
2018-03-15T23:32:50.629Z,6.00
2018-03-15T23:35:18.180Z,6.00
2018-03-15T23:37:45.727Z,6.10
2018-03-15T23:40:13.441Z,6.00
2018-03-15T23:42:40.998Z,6.00
2018-03-15T23:45:08.550Z,6.00
2018-03-15T23:47:36.878Z,6.10
2018-03-15T23:50:04.564Z,6.00
2018-03-15T23:52:32.252Z,6.00
2018-03-15T23:54:59.805Z,6.00
2018-03-15T23:57:27.555Z,5.90
2018-03-15T23:59:55.219Z,5.80
